KRB weather

Karumba Airport
Queensland, Australia

Public forecast

Using degrees Celsius for public forecast. Weather courtesy of forecast.io.

METAR (pilot weather report)

Closest report is Normanton Airport, 19.4 nm (35.8 km) SE. Retrieved 2019/03/25 15:00 UTC (32 minutes ago):

YNTN 251500Z AUTO 36007KT 9999 // NCD 27/25 Q1009

TAF (pilot weather forecast)

Closest forecast is Cairns International Airport, 284.6 nm (527.0 km) E. Retrieved 2019/03/25 12:00 UTC (4 hours ago):

TAF YBCS 251016Z 2512/2612 16006KT 9999 -SHRA FEW025 SCT040 FM260200 04010KT 9999 FEW028 FM260800 16006KT 9999 -SHRA FEW025 SCT040